Marcell, Minnesota
Current Conditions -  °F | °C
As of 6:33 AM on Thursday 29 Jan 2015 (Local Time) from KFOZ Reporting Station
Overcast Overcast  
Wind Chill: 10°   Ceiling: 600
Heat Index: 21°   Visibility: 10mi
Dew Point: 18°   Wind: 10mph
Humidity: 86%   Direction: 320°NW
Pressure: 30.09"   Gusts: 16mph
Location:  47.59°N, 93.69°W
Report Text: KFOZ 291233Z AUTO 32009G14KT 283V353 10SM OVC006 M06/M08 A3009 RMK AO2
Loading
Personal Weather Stations






























Interactive Weather Map New forecast layout! Learn more

10-Day Weather Forecast

Advertisements
Track Severe Weather on mobile